Time;durP1;ratioP1;P1;durP2;ratioP2;P2;SDS_P1;SDS_P2;PMS_P1;PMS_P2;Temp;Humidity;BMP_temperature;BMP_pressure;BME280_temperature;BME280_humidity;BME280_pressure;Samples;Min_cycle;Max_cycle;Signal;HPM_P1;HPM_P2
2021/07/23 00:01:28;;;;;;;12.25;8.23;;;;;;;16.06;81.76;98923.19;5014899;28;20411;-72
2021/07/23 00:03:54;;;;;;;14.32;8.20;;;;;;;15.84;81.75;98903.81;5028213;28;20100;-72
2021/07/23 00:06:19;;;;;;;18.58;9.05;;;;;;;16.02;81.73;98926.63;5024841;28;20029;-72
2021/07/23 00:08:44;;;;;;;13.68;8.07;;;;;;;15.81;82.28;98903.47;5032021;28;20108;-72
2021/07/23 00:11:09;;;;;;;12.65;7.85;;;;;;;15.86;82.51;98928.97;5032361;28;20101;-73
2021/07/23 00:13:35;;;;;;;12.10;7.70;;;;;;;15.90;82.56;98919.25;5020796;28;20047;-72
2021/07/23 00:16:00;;;;;;;13.85;8.88;;;;;;;15.84;82.72;98920.19;5014657;28;20067;-72
2021/07/23 00:18:25;;;;;;;16.90;8.95;;;;;;;15.78;82.59;98910.22;5014219;28;20038;-71
2021/07/23 00:20:51;;;;;;;14.27;8.93;;;;;;;15.75;83.76;98913.41;5031666;28;20033;-71
2021/07/23 00:23:16;;;;;;;21.50;9.40;;;;;;;15.57;83.96;98915.13;5031065;28;20078;-72
2021/07/23 00:25:42;;;;;;;12.15;8.93;;;;;;;15.69;83.69;98911.63;5014398;28;20176;-71
2021/07/23 00:28:07;;;;;;;14.55;9.02;;;;;;;15.39;84.06;98878.91;5014480;28;20025;-72
2021/07/23 00:30:32;;;;;;;12.43;8.80;;;;;;;15.49;84.67;98901.00;5014344;28;20022;-72
2021/07/23 00:33:00;;;;;;;14.15;9.13;;;;;;;15.55;84.71;98902.78;5013883;28;20033;-71
2021/07/23 00:35:27;;;;;;;16.42;9.25;;;;;;;15.62;84.28;98902.69;5032045;28;20021;-71
2021/07/23 00:37:53;;;;;;;16.60;9.20;;;;;;;15.67;84.38;98917.28;5031881;28;20079;-72
2021/07/23 00:40:18;;;;;;;16.17;9.73;;;;;;;15.46;84.80;98898.75;5014140;28;20513;-72
2021/07/23 00:42:43;;;;;;;14.93;9.45;;;;;;;15.44;84.92;98904.41;4999974;28;20022;-72
2021/07/23 00:45:09;;;;;;;14.73;9.60;;;;;;;15.40;85.46;98897.75;5031226;28;20029;-72
2021/07/23 00:47:37;;;;;;;15.13;10.32;;;;;;;15.40;85.66;98908.66;5032040;28;20515;-72
2021/07/23 00:50:04;;;;;;;15.77;8.88;;;;;;;15.21;85.67;98877.91;5032082;28;20104;-72
2021/07/23 00:52:29;;;;;;;20.08;9.48;;;;;;;15.44;85.64;98890.78;5030665;28;20471;-72
2021/07/23 00:54:55;;;;;;;17.08;10.55;;;;;;;15.59;84.23;98884.03;5013797;28;20045;-73
2021/07/23 00:57:21;;;;;;;15.85;9.40;;;;;;;15.63;84.39;98890.72;5030608;28;20120;-73
2021/07/23 00:59:46;;;;;;;16.52;9.73;;;;;;;15.45;84.69;98878.81;5034887;28;20025;-73
2021/07/23 01:02:12;;;;;;;14.63;9.48;;;;;;;15.53;85.12;98894.00;5030342;28;20056;-73
2021/07/23 01:04:39;;;;;;;15.88;9.88;;;;;;;15.52;84.58;98887.72;5017716;28;20061;-73
2021/07/23 01:07:05;;;;;;;15.13;9.60;;;;;;;15.44;84.81;98892.69;5017832;28;20079;-73
2021/07/23 01:09:31;;;;;;;13.82;8.98;;;;;;;15.43;84.81;98885.53;5035856;28;20018;-73
2021/07/23 01:11:57;;;;;;;17.52;9.65;;;;;;;15.46;84.75;98885.94;5035426;28;20032;-73
2021/07/23 01:14:22;;;;;;;17.33;10.55;;;;;;;15.52;85.47;98912.25;5015510;28;20065;-73
2021/07/23 01:16:48;;;;;;;18.25;9.48;;;;;;;15.34;85.42;98893.25;5030487;28;20049;-73
2021/07/23 01:19:14;;;;;;;16.30;9.43;;;;;;;15.33;85.62;98891.59;5014426;28;20181;-73
2021/07/23 01:21:42;;;;;;;14.32;9.25;;;;;;;15.53;84.86;98896.72;5017849;28;20053;-74
2021/07/23 01:24:11;;;;;;;13.32;9.20;;;;;;;15.41;84.57;98876.78;5030267;28;20701;-73
2021/07/23 01:26:37;;;;;;;14.02;9.10;;;;;;;15.44;84.55;98904.41;5017580;28;20022;-73
2021/07/23 01:29:03;;;;;;;15.05;10.02;;;;;;;15.36;85.06;98901.19;5035439;28;20037;-73
2021/07/23 01:31:29;;;;;;;15.48;9.52;;;;;;;15.34;84.94;98894.06;5017407;28;20483;-73
2021/07/23 01:33:54;;;;;;;15.02;10.18;;;;;;;15.39;84.83;98896.09;5034652;28;20033;-73
2021/07/23 01:36:19;;;;;;;18.05;9.88;;;;;;;15.38;85.04;98904.50;5034538;28;20037;-73
2021/07/23 01:38:47;;;;;;;12.90;9.50;;;;;;;15.23;85.63;98885.84;5004176;28;20105;-73
2021/07/23 01:41:12;;;;;;;14.77;9.45;;;;;;;15.19;85.94;98903.72;5015295;28;20046;-74
2021/07/23 01:43:38;;;;;;;18.17;10.18;;;;;;;14.93;86.08;98878.50;5021226;28;20025;-72
2021/07/23 01:46:03;;;;;;;17.20;9.90;;;;;;;14.89;86.61;98883.56;5017077;28;20364;-73
2021/07/23 01:48:28;;;;;;;16.02;10.15;;;;;;;14.74;87.13;98865.97;5034945;28;20395;-74
2021/07/23 01:50:54;;;;;;;19.75;9.40;;;;;;;14.67;86.86;98866.91;5032275;28;20495;-73
2021/07/23 01:53:19;;;;;;;15.02;9.60;;;;;;;14.80;86.90;98892.28;5026885;28;20033;-74
2021/07/23 01:55:45;;;;;;;16.17;9.50;;;;;;;14.75;87.43;98889.41;5034707;28;20044;-74
2021/07/23 01:58:11;;;;;;;15.90;10.23;;;;;;;14.81;87.23;98897.50;5034756;28;20104;-73
2021/07/23 02:00:36;;;;;;;16.25;9.57;;;;;;;14.85;87.97;98901.44;5034735;28;20036;-73
2021/07/23 02:03:02;;;;;;;17.98;10.30;;;;;;;14.90;87.33;98901.56;5034614;28;20029;-73
2021/07/23 02:05:28;;;;;;;18.77;10.75;;;;;;;14.80;88.14;98890.41;5019309;28;20030;-73
2021/07/23 02:07:53;;;;;;;15.18;9.85;;;;;;;14.84;87.48;98872.53;5020057;28;20159;-73
2021/07/23 02:10:18;;;;;;;17.13;9.63;;;;;;;14.85;87.58;98884.25;5014360;28;20029;-73
2021/07/23 02:12:43;;;;;;;14.63;10.10;;;;;;;14.72;87.89;98859.91;5014819;28;20037;-73
2021/07/23 02:15:09;;;;;;;16.25;10.05;;;;;;;14.81;87.95;98891.25;5018719;28;20502;-73
2021/07/23 02:17:35;;;;;;;15.48;9.98;;;;;;;14.79;87.81;98885.19;4998006;28;20036;-73
2021/07/23 02:20:00;;;;;;;15.50;10.73;;;;;;;14.66;87.81;98870.66;5021398;28;20075;-73
2021/07/23 02:22:25;;;;;;;14.32;9.73;;;;;;;14.77;87.65;98865.50;5025500;28;20427;-73
2021/07/23 02:24:50;;;;;;;14.95;10.35;;;;;;;14.45;87.38;98835.72;5016685;28;20053;-73
2021/07/23 02:27:16;;;;;;;14.48;9.57;;;;;;;14.63;87.62;98865.66;4997166;28;20040;-73
2021/07/23 02:29:41;;;;;;;18.42;10.60;;;;;;;14.50;88.25;98854.09;5013230;28;20527;-73
2021/07/23 02:32:07;;;;;;;25.85;10.10;;;;;;;14.59;88.51;98872.66;5020593;28;20021;-73
2021/07/23 02:34:33;;;;;;;16.13;10.05;;;;;;;14.30;89.10;98854.31;5017322;28;20483;-73
2021/07/23 02:36:58;;;;;;;18.27;9.93;;;;;;;14.39;89.52;98881.00;5018770;28;20121;-73
2021/07/23 02:39:27;;;;;;;16.85;10.18;;;;;;;14.38;89.21;98883.94;5023619;28;20021;-73
2021/07/23 02:41:52;;;;;;;15.57;9.52;;;;;;;14.26;89.45;98870.25;5023379;28;20061;-73
2021/07/23 02:44:18;;;;;;;15.13;10.07;;;;;;;14.30;89.87;98876.06;5022876;28;20033;-73
2021/07/23 02:46:43;;;;;;;16.27;10.00;;;;;;;13.98;89.92;98827.22;5023757;28;20041;-73
2021/07/23 02:49:09;;;;;;;14.18;9.40;;;;;;;14.16;89.86;98853.63;5022515;28;20535;-73
2021/07/23 02:51:34;;;;;;;16.17;9.80;;;;;;;14.36;90.06;98877.91;5012025;28;20391;-73
2021/07/23 02:53:59;;;;;;;15.70;10.05;;;;;;;14.18;89.74;98865.94;5022393;28;20057;-73
2021/07/23 02:56:26;;;;;;;14.15;9.65;;;;;;;14.20;89.90;98884.75;5033161;28;20033;-73
2021/07/23 02:58:51;;;;;;;14.82;9.05;;;;;;;14.05;90.21;98852.47;5025826;28;20033;-73
2021/07/23 03:01:17;;;;;;;18.55;9.48;;;;;;;14.18;89.90;98857.78;5032661;28;20032;-74
2021/07/23 03:03:42;;;;;;;18.25;10.00;;;;;;;14.14;89.86;98858.44;5009439;28;20037;-73
2021/07/23 03:06:08;;;;;;;14.30;9.40;;;;;;;14.09;90.20;98861.84;5017294;28;20036;-73
2021/07/23 03:08:33;;;;;;;14.23;9.38;;;;;;;14.03;90.45;98851.88;5018725;28;20037;-73
2021/07/23 03:11:01;;;;;;;15.43;9.75;;;;;;;13.94;90.51;98842.34;5014196;28;20080;-73
2021/07/23 03:13:26;;;;;;;16.23;10.02;;;;;;;13.95;90.71;98846.72;5020624;28;20045;-73
2021/07/23 03:15:52;;;;;;;18.35;10.02;;;;;;;14.02;90.94;98858.38;5023662;28;20021;-73
2021/07/23 03:18:17;;;;;;;17.95;9.10;;;;;;;13.89;91.10;98848.44;5013899;28;20439;-73
2021/07/23 03:20:42;;;;;;;19.15;10.88;;;;;;;13.85;91.37;98840.94;5013658;28;20373;-73
2021/07/23 03:23:08;;;;;;;15.43;10.10;;;;;;;14.10;90.60;98849.91;4996566;28;20049;-73
2021/07/23 03:25:33;;;;;;;13.00;8.43;;;;;;;14.05;89.79;98843.50;5027973;28;20151;-73
2021/07/23 03:27:59;;;;;;;16.30;9.40;;;;;;;14.01;90.03;98845.81;5016928;28;20763;-73
2021/07/23 03:30:25;;;;;;;15.85;9.20;;;;;;;14.08;90.33;98854.75;4995875;28;20017;-74
2021/07/23 03:32:50;;;;;;;13.93;8.85;;;;;;;14.15;89.59;98862.84;5025327;28;20036;-73
2021/07/23 03:35:15;;;;;;;15.23;9.75;;;;;;;13.91;89.91;98830.03;5023037;28;20025;-72
2021/07/23 03:37:41;;;;;;;17.70;9.88;;;;;;;13.92;90.44;98845.28;5014024;28;20028;-73
2021/07/23 03:40:08;;;;;;;13.45;9.00;;;;;;;13.91;90.11;98853.66;4996256;28;20025;-73
2021/07/23 03:42:33;;;;;;;14.27;9.02;;;;;;;13.84;90.25;98848.28;5034722;28;20057;-72
2021/07/23 03:44:59;;;;;;;15.68;9.40;;;;;;;13.79;89.69;98827.19;5015476;28;20456;-73
2021/07/23 03:47:24;;;;;;;22.52;9.38;;;;;;;13.90;90.91;98839.22;4995639;28;20022;-73
2021/07/23 03:49:50;;;;;;;13.27;8.60;;;;;;;13.72;90.86;98840.00;5025056;28;20502;-74
2021/07/23 03:52:15;;;;;;;15.55;9.77;;;;;;;13.76;91.35;98857.56;5021990;28;20025;-76
2021/07/23 03:54:40;;;;;;;13.88;9.05;;;;;;;13.69;91.30;98843.19;4998447;28;20076;-72
2021/07/23 03:57:06;;;;;;;15.98;9.77;;;;;;;13.79;91.18;98848.94;5012473;28;20135;-69
2021/07/23 03:59:34;;;;;;;15.15;9.30;;;;;;;13.77;90.48;98852.94;5006562;28;20022;-69
2021/07/23 04:02:00;;;;;;;13.85;8.73;;;;;;;13.79;91.14;98846.22;5013411;28;20042;-69
2021/07/23 04:04:26;;;;;;;14.13;9.55;;;;;;;13.74;90.97;98834.34;5019691;28;20036;-68
2021/07/23 04:07:00;;;;;;;16.90;10.25;;;;;;;13.80;90.66;98847.88;5023970;28;20025;-68
2021/07/23 04:09:26;;;;;;;18.23;10.27;;;;;;;13.83;91.11;98846.59;5013737;28;20105;-69
2021/07/23 04:11:53;;;;;;;15.35;10.15;;;;;;;13.76;91.21;98843.97;5006803;28;20037;-69
2021/07/23 04:14:19;;;;;;;18.40;9.85;;;;;;;13.87;90.88;98849.72;5022897;28;20034;-69
2021/07/23 04:16:44;;;;;;;16.13;9.43;;;;;;;13.97;90.79;98856.31;5016624;28;20472;-69
2021/07/23 04:19:10;;;;;;;17.83;9.20;;;;;;;14.02;90.57;98863.81;5023111;28;20053;-70
2021/07/23 04:21:35;;;;;;;20.80;9.38;;;;;;;14.06;90.30;98859.56;5022162;28;20120;-69
2021/07/23 04:24:01;;;;;;;22.30;9.05;;;;;;;14.15;90.40;98868.28;5027709;28;20029;-68
2021/07/23 04:26:26;;;;;;;18.08;9.43;;;;;;;14.06;89.63;98845.97;5026546;28;20030;-70
2021/07/23 04:28:51;;;;;;;18.60;9.85;;;;;;;14.19;89.17;98859.44;5023292;28;20035;-68
2021/07/23 04:31:17;;;;;;;18.27;10.05;;;;;;;14.31;88.64;98864.16;5023674;28;20029;-68
2021/07/23 04:33:42;;;;;;;13.60;9.25;;;;;;;14.32;88.46;98871.25;5013666;28;20117;-66
2021/07/23 04:36:08;;;;;;;15.55;9.00;;;;;;;14.33;88.77;98871.03;5012389;28;20033;-64
2021/07/23 04:38:33;;;;;;;16.27;9.43;;;;;;;14.42;88.45;98869.66;5012116;28;20079;-64
2021/07/23 04:40:58;;;;;;;19.08;9.05;;;;;;;14.55;86.31;98879.59;5021361;28;20037;-67
2021/07/23 04:43:23;;;;;;;22.13;9.05;;;;;;;14.58;87.11;98859.25;5012055;28;20109;-67
2021/07/23 04:45:49;;;;;;;16.55;9.77;;;;;;;14.73;86.85;98880.66;5012343;28;20033;-68
2021/07/23 04:48:14;;;;;;;17.08;10.13;;;;;;;14.77;87.58;98887.28;5020512;28;20041;-65
2021/07/23 04:50:39;;;;;;;16.20;9.35;;;;;;;14.86;87.34;98883.22;5027152;28;20025;-64
2021/07/23 04:53:04;;;;;;;19.15;10.55;;;;;;;14.98;86.82;98888.69;5019029;28;20033;-64
2021/07/23 04:55:30;;;;;;;15.48;9.20;;;;;;;15.10;86.52;98889.59;5018623;28;20407;-64
2021/07/23 04:57:55;;;;;;;15.45;8.57;;;;;;;15.27;85.86;98882.44;5019036;28;20032;-64
2021/07/23 05:00:20;;;;;;;20.27;9.55;;;;;;;15.40;84.90;98886.03;5016622;28;20064;-66
2021/07/23 05:02:52;;;;;;;14.10;9.18;;;;;;;15.50;84.31;98878.94;5020774;28;20052;-67
2021/07/23 05:05:21;;;;;;;19.75;9.88;;;;;;;15.69;84.15;98873.44;5028923;28;20033;-69
2021/07/23 05:07:46;;;;;;;16.17;8.67;;;;;;;15.87;83.08;98875.22;5013856;28;20029;-67
2021/07/23 05:10:12;;;;;;;17.58;9.63;;;;;;;16.07;81.57;98881.19;5013628;28;20029;-63
2021/07/23 05:12:38;;;;;;;16.17;9.57;;;;;;;16.11;80.67;98881.53;5011974;28;20026;-64
2021/07/23 05:15:04;;;;;;;20.15;10.25;;;;;;;16.19;80.54;98881.16;5018851;28;20032;-64
2021/07/23 05:17:31;;;;;;;15.18;9.65;;;;;;;16.21;79.67;98874.41;5016595;28;20041;-65
2021/07/23 05:19:57;;;;;;;17.42;10.00;;;;;;;16.41;79.01;98886.88;5017688;28;20026;-64
2021/07/23 05:22:22;;;;;;;15.27;8.73;;;;;;;16.59;78.78;98888.63;5020568;28;20018;-64
2021/07/23 05:24:47;;;;;;;17.48;8.45;;;;;;;16.77;78.18;98876.72;5018837;28;20025;-65
2021/07/23 05:27:13;;;;;;;17.20;9.10;;;;;;;17.07;77.32;98884.72;5018512;28;20076;-65
2021/07/23 05:29:38;;;;;;;14.40;9.02;;;;;;;17.37;77.23;98872.69;5017073;28;20483;-66
2021/07/23 05:32:03;;;;;;;18.30;9.82;;;;;;;17.58;76.23;98876.59;5020777;28;20030;-68
2021/07/23 05:34:29;;;;;;;20.60;9.10;;;;;;;17.66;75.33;98885.25;5017479;28;20408;-68
2021/07/23 05:36:56;;;;;;;14.20;7.78;;;;;;;18.02;74.18;98871.34;5009069;28;20348;-68
2021/07/23 05:39:21;;;;;;;18.70;8.63;;;;;;;18.36;74.74;98892.09;5019990;28;20036;-67
2021/07/23 05:41:46;;;;;;;18.95;9.55;;;;;;;18.41;73.27;98866.69;5017225;28;20026;-67
2021/07/23 05:44:14;;;;;;;15.18;8.63;;;;;;;18.67;71.11;98872.53;5016108;28;20025;-67
2021/07/23 05:46:40;;;;;;;14.60;9.13;;;;;;;18.83;69.67;98879.88;5020420;28;20475;-67
2021/07/23 05:49:06;;;;;;;13.18;8.15;;;;;;;18.77;69.50;98869.94;5022765;28;20037;-68
2021/07/23 05:51:31;;;;;;;18.42;9.40;;;;;;;18.76;70.34;98880.09;5009187;28;20040;-67
2021/07/23 05:53:56;;;;;;;12.85;8.73;;;;;;;18.79;70.23;98884.25;5021924;28;20041;-67
2021/07/23 05:56:21;;;;;;;16.75;9.45;;;;;;;18.70;71.26;98875.59;5023431;28;20037;-67
2021/07/23 05:58:47;;;;;;;12.32;8.30;;;;;;;18.90;72.21;98879.72;5020061;28;20034;-68
2021/07/23 06:01:12;;;;;;;13.02;9.10;;;;;;;18.70;72.93;98877.50;5021800;28;20049;-68
2021/07/23 06:03:39;;;;;;;14.07;8.38;;;;;;;18.80;69.68;98848.34;5022928;28;20126;-68
2021/07/23 06:06:05;;;;;;;14.15;8.70;;;;;;;19.24;70.00;98869.41;5013407;28;20037;-72
2021/07/23 06:08:30;;;;;;;17.52;9.32;;;;;;;19.77;67.15;98867.72;5011783;28;20417;-71
2021/07/23 06:10:56;;;;;;;14.82;9.00;;;;;;;19.78;66.38;98874.88;5024233;28;20033;-67
2021/07/23 06:13:21;;;;;;;16.92;8.85;;;;;;;20.17;66.22;98876.53;5015965;28;20048;-66
2021/07/23 06:15:47;;;;;;;17.35;8.40;;;;;;;20.43;65.97;98872.03;5028370;28;20436;-70
2021/07/23 06:18:12;;;;;;;16.48;9.07;;;;;;;20.38;65.21;98866.50;5029092;28;20021;-72
2021/07/23 06:20:37;;;;;;;16.33;8.63;;;;;;;20.40;65.60;98856.06;5035303;28;20100;-74
2021/07/23 06:23:03;;;;;;;15.02;9.20;;;;;;;20.71;64.03;98866.16;5011792;28;20036;-73
2021/07/23 06:25:28;;;;;;;14.68;8.60;;;;;;;20.39;65.27;98849.75;5010086;28;20078;-71
2021/07/23 06:27:54;;;;;;;14.23;9.05;;;;;;;21.06;63.22;98858.31;5030962;28;20040;-68
2021/07/23 06:30:19;;;;;;;15.60;8.93;;;;;;;21.35;61.04;98844.88;5034233;28;20029;-70
2021/07/23 06:32:44;;;;;;;14.57;9.23;;;;;;;21.36;62.00;98855.63;5008689;28;20034;-68
2021/07/23 06:35:10;;;;;;;15.00;9.60;;;;;;;21.87;61.87;98854.84;5005224;28;20033;-67
2021/07/23 06:37:36;;;;;;;19.10;9.32;;;;;;;21.56;60.81;98856.78;5014543;28;20400;-69
2021/07/23 06:40:01;;;;;;;17.13;9.30;;;;;;;22.12;59.35;98855.97;5020390;28;20120;-69
2021/07/23 06:42:26;;;;;;;15.57;9.30;;;;;;;22.24;60.01;98851.84;5032303;28;20022;-69
2021/07/23 06:44:52;;;;;;;13.93;9.07;;;;;;;22.43;58.72;98856.75;5031627;28;20120;-70
2021/07/23 06:47:18;;;;;;;16.02;8.90;;;;;;;22.79;58.11;98868.47;5024901;28;20083;-69
2021/07/23 06:49:44;;;;;;;14.55;9.55;;;;;;;23.70;54.84;98852.50;5028573;28;20100;-69
2021/07/23 06:52:10;;;;;;;15.88;9.25;;;;;;;24.47;51.82;98835.25;5016886;28;20116;-69
2021/07/23 06:54:35;;;;;;;12.52;8.38;;;;;;;25.51;50.52;98851.03;5016797;28;20034;-67
2021/07/23 06:57:04;;;;;;;13.80;9.35;;;;;;;27.35;45.46;98849.56;5017769;28;20033;-65
2021/07/23 06:59:31;;;;;;;14.48;8.68;;;;;;;28.39;44.52;98838.38;5032580;28;20104;-71
2021/07/23 07:01:58;;;;;;;16.52;8.77;;;;;;;29.54;42.01;98841.16;5014995;28;20036;-69
2021/07/23 07:04:23;;;;;;;13.93;8.02;;;;;;;30.17;39.97;98831.25;5013017;28;20072;-69
2021/07/23 07:06:48;;;;;;;12.27;8.57;;;;;;;30.82;38.63;98839.59;5021095;28;20065;-73
2021/07/23 07:09:14;;;;;;;12.80;8.02;;;;;;;31.55;37.84;98856.88;5025344;28;20068;-73
2021/07/23 07:11:39;;;;;;;11.40;7.97;;;;;;;31.58;36.64;98836.59;5021113;28;20033;-71
2021/07/23 07:14:05;;;;;;;11.32;8.30;;;;;;;32.30;35.42;98839.19;5028630;28;20112;-75
2021/07/23 07:16:30;;;;;;;15.70;8.68;;;;;;;32.38;35.22;98841.06;5015614;28;20026;-74
2021/07/23 07:18:56;;;;;;;10.55;7.78;;;;;;;32.47;35.08;98827.84;5019467;28;20071;-69
2021/07/23 07:21:21;;;;;;;14.00;7.78;;;;;;;33.86;33.82;98844.59;5012858;28;20029;-72
2021/07/23 07:23:46;;;;;;;11.70;7.63;;;;;;;34.02;32.97;98837.03;5031053;28;20017;-68
2021/07/23 07:26:12;;;;;;;18.80;8.00;;;;;;;34.06;32.51;98828.75;5024773;28;20366;-70
2021/07/23 07:28:38;;;;;;;9.80;7.18;;;;;;;33.48;33.38;98817.81;5017472;28;20101;-68
2021/07/23 07:31:03;;;;;;;12.50;8.13;;;;;;;33.24;33.63;98826.28;5032020;28;20028;-68
2021/07/23 07:33:29;;;;;;;11.02;7.70;;;;;;;34.46;32.38;98830.59;5025412;28;20614;-67
2021/07/23 07:35:55;;;;;;;12.48;7.95;;;;;;;34.33;32.72;98829.84;5029790;28;20041;-68
2021/07/23 07:38:21;;;;;;;11.55;8.10;;;;;;;34.35;32.79;98826.66;5029761;28;20387;-67
2021/07/23 07:40:46;;;;;;;12.38;7.85;;;;;;;34.12;32.93;98830.09;5031854;28;20369;-67
2021/07/23 07:43:11;;;;;;;9.88;7.53;;;;;;;35.07;31.80;98826.47;5031086;28;20415;-67
2021/07/23 07:45:36;;;;;;;13.25;7.30;;;;;;;35.97;30.58;98830.06;5032632;28;20395;-67
2021/07/23 07:48:03;;;;;;;11.60;7.57;;;;;;;36.42;29.80;98834.13;5032840;28;20041;-68
2021/07/23 07:50:29;;;;;;;13.63;7.88;;;;;;;35.32;30.84;98813.00;5032323;28;20081;-67
2021/07/23 07:52:54;;;;;;;11.25;7.20;;;;;;;36.01;31.00;98821.66;5032178;28;20479;-68
2021/07/23 07:55:20;;;;;;;12.48;7.50;;;;;;;36.53;30.46;98817.41;5032678;28;20022;-67
2021/07/23 07:57:45;;;;;;;9.27;7.20;;;;;;;35.48;30.28;98824.19;5032206;28;20547;-67
2021/07/23 08:00:11;;;;;;;10.40;7.53;;;;;;;35.98;30.46;98828.84;5032287;28;20029;-68
2021/07/23 08:02:36;;;;;;;11.13;7.60;;;;;;;34.99;30.30;98822.66;5021382;28;20283;-68
2021/07/23 08:05:01;;;;;;;9.88;6.70;;;;;;;36.66;28.59;98823.69;5038967;22;20103;-68
2021/07/23 08:07:32;;;;;;;10.80;7.13;;;;;;;35.88;29.81;98825.84;5052372;28;20027;-68
2021/07/23 08:10:05;;;;;;;9.85;7.07;;;;;;;37.11;28.18;98819.16;5052229;28;20363;-67
2021/07/23 08:12:31;;;;;;;10.82;7.53;;;;;;;37.56;28.04;98813.75;5051948;28;20028;-67
2021/07/23 08:14:58;;;;;;;10.10;6.80;;;;;;;38.33;27.00;98807.38;5051465;28;20104;-68
2021/07/23 08:17:25;;;;;;;9.70;7.07;;;;;;;37.94;27.37;98812.59;5032405;28;20036;-68
2021/07/23 08:19:50;;;;;;;9.68;6.97;;;;;;;37.94;26.83;98818.25;5045057;28;20028;-68
2021/07/23 08:22:17;;;;;;;13.07;7.63;;;;;;;37.19;26.87;98806.78;5051815;28;20470;-68
2021/07/23 08:24:42;;;;;;;11.10;7.18;;;;;;;36.50;28.45;98803.22;5027392;28;20432;-68
2021/07/23 08:27:07;;;;;;;9.07;6.35;;;;;;;36.33;26.98;98801.75;5033286;28;20032;-68
2021/07/23 08:29:33;;;;;;;7.50;6.28;;;;;;;36.80;28.01;98798.53;5035704;28;20021;-68
2021/07/23 08:32:06;;;;;;;9.35;7.07;;;;;;;36.89;26.93;98788.97;5034887;28;20056;-68
2021/07/23 08:34:32;;;;;;;13.35;7.38;;;;;;;36.95;26.90;98795.94;5044900;28;20032;-68
2021/07/23 08:36:57;;;;;;;10.57;6.97;;;;;;;38.02;26.61;98794.56;5051260;28;20518;-68
2021/07/23 08:39:22;;;;;;;9.97;6.70;;;;;;;37.69;27.36;98789.72;5051955;28;20024;-68
2021/07/23 08:41:47;;;;;;;11.70;7.47;;;;;;;37.05;26.77;98790.47;5051355;28;20029;-68
2021/07/23 08:44:15;;;;;;;10.60;7.30;;;;;;;37.41;27.76;98785.28;5041405;28;20652;-68
2021/07/23 08:46:40;;;;;;;8.82;6.78;;;;;;;37.35;27.43;98786.84;5032271;28;20481;-68
2021/07/23 08:49:06;;;;;;;8.88;6.38;;;;;;;39.48;25.97;98781.94;5032360;28;20113;-70
2021/07/23 08:51:32;;;;;;;10.75;6.95;;;;;;;38.87;25.93;98776.69;5031787;28;20025;-70
2021/07/23 08:53:57;;;;;;;10.95;6.95;;;;;;;39.10;25.33;98776.47;5050013;28;20718;-70
2021/07/23 08:56:22;;;;;;;11.20;7.60;;;;;;;38.03;26.66;98782.03;5047745;28;20022;-70
2021/07/23 08:58:47;;;;;;;8.48;6.10;;;;;;;39.55;25.60;98781.97;5031887;28;20128;-71
2021/07/23 09:01:13;;;;;;;9.50;7.13;;;;;;;38.53;25.36;98776.84;5040727;28;20048;-70
2021/07/23 09:03:38;;;;;;;9.18;7.00;;;;;;;38.25;25.54;98770.94;5050873;28;20275;-71
2021/07/23 09:06:18;;;;;;;7.97;6.38;;;;;;;39.73;24.79;98785.66;5029263;28;20476;-70
2021/07/23 09:08:54;;;;;;;8.77;6.53;;;;;;;40.37;24.26;98775.69;5043990;28;20047;-70
2021/07/23 09:11:30;;;;;;;8.88;5.78;;;;;;;39.92;24.35;98775.22;5043601;28;20044;-70
2021/07/23 09:14:12;;;;;;;9.95;6.05;;;;;;;39.87;23.85;98768.72;5032729;28;20112;-69
2021/07/23 09:16:37;;;;;;;9.73;6.28;;;;;;;39.52;23.94;98763.75;5031602;28;20506;-70
2021/07/23 09:19:07;;;;;;;7.80;6.00;;;;;;;39.69;24.14;98767.03;5031705;28;20033;-71
2021/07/23 09:21:36;;;;;;;11.20;6.90;;;;;;;38.70;24.37;98764.06;5044766;28;20021;-70
2021/07/23 09:24:02;;;;;;;9.70;6.80;;;;;;;37.65;25.77;98760.59;5051955;28;20567;-69
2021/07/23 09:26:40;;;;;;;12.73;6.78;;;;;;;36.41;27.49;98766.88;5049235;28;20068;-69
2021/07/23 09:29:05;;;;;;;9.77;5.68;;;;;;;39.22;25.74;98755.50;5055323;28;20388;-69
2021/07/23 09:31:33;;;;;;;9.50;6.50;;;;;;;39.69;24.77;98739.50;5043042;28;20017;-70
2021/07/23 09:33:59;;;;;;;13.20;6.32;;;;;;;39.28;25.51;98753.13;5030512;28;20033;-69
2021/07/23 09:36:24;;;;;;;7.22;6.38;;;;;;;38.88;25.85;98752.06;5043637;28;20033;-69
2021/07/23 09:38:50;;;;;;;7.25;6.00;;;;;;;39.51;25.27;98744.31;5049290;28;20051;-69
2021/07/23 09:41:21;;;;;;;9.57;6.27;;;;;;;39.27;25.13;98759.97;5054833;28;20025;-70
2021/07/23 09:43:55;;;;;;;7.47;5.80;;;;;;;39.05;24.91;98742.09;5054938;28;20784;-70
2021/07/23 09:46:23;;;;;;;7.22;5.95;;;;;;;39.65;23.11;98744.38;5054445;28;20072;-70
2021/07/23 09:48:49;;;;;;;13.98;6.30;;;;;;;38.34;24.39;98740.34;5035184;28;20025;-69
2021/07/23 09:51:14;;;;;;;10.00;6.93;;;;;;;38.42;25.30;98746.88;5035755;28;20132;-69
2021/07/23 09:53:40;;;;;;;7.00;6.03;;;;;;;38.57;24.07;98743.78;5043845;28;20034;-71
2021/07/23 09:56:07;;;;;;;9.30;5.82;;;;;;;39.64;23.69;98739.91;5030687;28;20034;-70
2021/07/23 09:58:45;;;;;;;10.80;6.63;;;;;;;39.76;23.40;98744.41;5044444;28;20021;-70
2021/07/23 10:01:14;;;;;;;8.52;6.25;;;;;;;39.35;23.56;98731.31;5035515;28;20447;-69
2021/07/23 10:03:43;;;;;;;6.13;5.47;;;;;;;39.91;24.79;98729.09;5043755;28;20472;-70
2021/07/23 10:06:13;;;;;;;9.43;6.00;;;;;;;40.42;24.01;98730.75;5049394;28;20510;-69
2021/07/23 10:08:42;;;;;;;9.82;6.20;;;;;;;41.26;22.40;98735.88;5042342;28;20035;-69
2021/07/23 10:11:10;;;;;;;7.07;6.18;;;;;;;40.74;22.56;98725.06;5032222;28;20048;-70
2021/07/23 10:13:39;;;;;;;7.35;6.63;;;;;;;40.01;23.28;98733.13;5045611;28;20116;-70
2021/07/23 10:16:05;;;;;;;8.05;6.75;;;;;;;39.63;25.00;98729.81;5014436;28;20115;-70
2021/07/23 10:18:33;;;;;;;8.00;6.63;;;;;;;39.64;25.17;98720.91;5032016;28;20021;-71
2021/07/23 10:20:58;;;;;;;;;;;;;;;40.30;24.30;98712.13;5043022;28;20039;-70
2021/07/23 10:23:25;;;;;;;7.03;5.50;;;;;;;40.97;23.40;98703.91;5045011;28;19913;-71
2021/07/23 10:25:53;;;;;;;8.45;5.78;;;;;;;40.31;22.77;98698.75;5034555;28;20111;-71
2021/07/23 10:28:36;;;;;;;9.70;6.28;;;;;;;40.70;22.73;98693.06;5034024;28;20167;-72
2021/07/23 10:31:24;;;;;;;7.15;5.68;;;;;;;39.98;22.35;98695.06;5037913;28;20025;-71
2021/07/23 10:33:58;;;;;;;9.68;5.63;;;;;;;41.38;23.24;98684.31;5033150;28;20025;-71
2021/07/23 10:36:26;;;;;;;8.23;5.95;;;;;;;41.39;22.68;98679.44;5051986;28;20063;-71
2021/07/23 10:39:06;;;;;;;8.88;6.00;;;;;;;41.26;22.15;98681.13;5041341;28;20025;-71
2021/07/23 10:41:37;;;;;;;8.70;5.85;;;;;;;41.03;22.81;98673.91;5040306;28;20735;-71
2021/07/23 10:44:04;;;;;;;8.00;6.70;;;;;;;39.70;23.38;98670.34;5032632;28;20064;-71
2021/07/23 10:46:45;;;;;;;8.15;6.10;;;;;;;39.91;24.65;98665.97;5031027;28;20037;-70
2021/07/23 10:49:11;;;;;;;8.95;6.50;;;;;;;38.72;25.01;98661.84;5032828;28;20072;-71
2021/07/23 10:51:49;;;;;;;10.07;6.68;;;;;;;38.36;26.07;98653.97;5034709;28;20022;-70
2021/07/23 10:54:16;;;;;;;7.07;6.15;;;;;;;38.92;24.89;98668.06;5050073;28;20041;-70
2021/07/23 10:56:58;;;;;;;9.02;5.45;;;;;;;38.93;25.08;98664.00;5040674;28;20446;-70
2021/07/23 10:59:41;;;;;;;7.82;5.78;;;;;;;38.65;26.31;98664.66;5030893;28;20409;-71
2021/07/23 11:02:09;;;;;;;10.60;6.07;;;;;;;37.46;27.04;98665.63;5045498;28;20063;-70
2021/07/23 11:04:35;;;;;;;;;;;;;;;35.83;29.08;98662.84;5037555;28;20029;-70
2021/07/23 11:07:01;;;;;;;8.80;6.28;;;;;;;36.76;28.23;98650.22;5030657;28;19943;-70
2021/07/23 11:09:36;;;;;;;10.98;6.65;;;;;;;38.48;26.02;98650.00;5013382;28;20025;-70
2021/07/23 11:12:14;;;;;;;15.45;6.15;;;;;;;39.28;23.75;98645.56;5032318;28;20025;-70
2021/07/23 11:14:39;;;;;;;9.10;6.50;;;;;;;40.29;23.06;98638.81;5022097;28;20036;-73
2021/07/23 11:17:04;;;;;;;9.03;6.10;;;;;;;40.59;23.57;98629.06;5049554;28;20387;-70
2021/07/23 11:19:30;;;;;;;7.82;5.75;;;;;;;39.74;23.21;98640.00;5048862;28;20267;-70
2021/07/23 11:21:55;;;;;;;6.80;5.40;;;;;;;39.91;24.49;98637.63;5046048;28;20029;-70
2021/07/23 11:24:20;;;;;;;8.30;6.13;;;;;;;38.36;24.33;98636.19;5030646;28;20487;-69